Time;durP1;ratioP1;P1;durP2;ratioP2;P2;SDS_P1;SDS_P2;PMS_P1;PMS_P2;Temp;Humidity;BMP_temperature;BMP_pressure;BME280_temperature;BME280_humidity;BME280_pressure;Samples;Min_cycle;Max_cycle;Signal;HPM_P1;HPM_P2
2022/09/16 00:00:50;;;;;;;8.20;4.70;;;16.40;99.90;;;;;;5115679;28;20533;-55
2022/09/16 00:03:18;;;;;;;5.73;4.83;;;16.40;99.90;;;;;;5115715;28;20442;-55
2022/09/16 00:05:47;;;;;;;6.30;5.23;;;16.40;99.90;;;;;;5115752;28;20449;-55
2022/09/16 00:08:16;;;;;;;6.20;5.03;;;16.30;99.90;;;;;;5115610;28;20871;-55
2022/09/16 00:10:44;;;;;;;4.83;4.37;;;16.20;99.90;;;;;;5115393;28;20478;-55
2022/09/16 00:13:11;;;;;;;8.37;4.77;;;16.10;99.90;;;;;;5115502;28;20905;-55
2022/09/16 00:15:41;;;;;;;5.77;5.17;;;16.30;99.90;;;;;;5115599;28;20541;-55
2022/09/16 00:18:10;;;;;;;6.00;5.07;;;16.20;99.90;;;;;;5115450;28;20435;-55
2022/09/16 00:20:37;;;;;;;5.00;4.60;;;16.40;99.90;;;;;;5115261;28;20495;-55
2022/09/16 00:23:04;;;;;;;5.53;4.50;;;16.40;99.90;;;;;;5115035;28;20450;-55
2022/09/16 00:25:34;;;;;;;6.07;4.73;;;16.40;99.90;;;;;;5114144;28;20451;-55
2022/09/16 00:28:02;;;;;;;5.30;4.90;;;16.40;99.90;;;;;;5115195;28;20443;-55
2022/09/16 00:30:29;;;;;;;8.10;4.50;;;16.60;99.90;;;;;;5114913;28;20478;-55
2022/09/16 00:32:56;;;;;;;7.57;4.80;;;16.80;99.90;;;;;;5115011;28;20819;-55
2022/09/16 00:35:23;;;;;;;5.70;4.63;;;16.70;99.90;;;;;;5115002;28;20491;-55
2022/09/16 00:37:50;;;;;;;7.00;5.33;;;16.60;99.90;;;;;;5114838;28;20442;-55
2022/09/16 00:40:17;;;;;;;4.73;4.30;;;16.70;99.90;;;;;;5114615;28;20442;-55
2022/09/16 00:42:46;;;;;;;5.80;5.30;;;16.80;99.90;;;;;;5114762;28;20477;-55
2022/09/16 00:45:19;;;;;;;5.30;4.80;;;16.80;99.90;;;;;;5114483;28;20474;-55
2022/09/16 00:47:50;;;;;;;7.93;5.20;;;16.80;99.90;;;;;;5114753;28;20417;-55
2022/09/16 00:50:20;;;;;;;6.50;5.27;;;16.60;99.90;;;;;;5114524;28;20924;-55
2022/09/16 00:52:49;;;;;;;7.40;4.67;;;16.50;99.90;;;;;;5114566;28;20486;-55
2022/09/16 00:55:21;;;;;;;5.90;5.13;;;16.40;99.90;;;;;;5114481;28;20533;-55
2022/09/16 00:57:50;;;;;;;5.10;4.60;;;16.30;99.90;;;;;;5114794;28;20434;-55
2022/09/16 01:00:18;;;;;;;7.53;5.77;;;16.40;99.90;;;;;;5114634;28;20442;-55
2022/09/16 01:02:48;;;;;;;6.10;5.50;;;16.30;99.90;;;;;;5114300;28;20450;-55
2022/09/16 01:05:20;;;;;;;9.90;5.40;;;16.20;99.90;;;;;;5114606;28;20449;-55
2022/09/16 01:07:49;;;;;;;5.40;4.90;;;16.00;99.90;;;;;;5114472;28;20423;-55
2022/09/16 01:10:19;;;;;;;5.33;4.90;;;15.70;99.90;;;;;;5114099;28;20955;-55
2022/09/16 01:12:52;;;;;;;5.67;5.17;;;15.90;99.90;;;;;;5113811;28;20497;-55
2022/09/16 01:15:19;;;;;;;5.80;5.20;;;15.80;99.90;;;;;;5114508;28;20541;-56
2022/09/16 01:18:11;;;;;;;5.40;4.80;;;16.10;99.90;;;;;;5114273;28;20524;-55
2022/09/16 01:21:15;;;;;;;5.03;4.53;;;16.30;99.90;;;;;;5114120;28;20431;-55
2022/09/16 01:24:02;;;;;;;7.93;5.97;;;16.30;99.90;;;;;;5114082;28;20426;-55
2022/09/16 01:26:56;;;;;;;5.90;5.27;;;16.20;99.90;;;;;;5114039;28;20443;-55
2022/09/16 01:29:52;;;;;;;5.73;5.23;;;15.90;99.90;;;;;;5114165;28;20437;-55
2022/09/16 01:32:28;;;;;;;5.70;5.03;;;15.80;99.90;;;;;;5113711;28;20493;-55
2022/09/16 01:35:03;;;;;;;5.37;4.97;;;15.60;99.90;;;;;;5113595;28;20427;-55
2022/09/16 01:37:40;;;;;;;5.73;5.20;;;15.80;99.90;;;;;;5113823;28;20434;-55
2022/09/16 01:40:13;;;;;;;5.13;4.53;;;15.90;99.90;;;;;;5114142;28;20423;-55
2022/09/16 01:42:49;;;;;;;6.00;5.40;;;16.00;99.90;;;;;;5113775;28;20466;-55
2022/09/16 01:45:22;;;;;;;6.20;5.30;;;16.10;99.90;;;;;;5113468;28;20474;-55
2022/09/16 01:48:01;;;;;;;7.47;4.93;;;16.20;99.90;;;;;;5114091;28;20781;-57
2022/09/16 01:50:32;;;;;;;7.50;5.60;;;16.10;99.90;;;;;;5113924;28;20426;-56
2022/09/16 01:53:11;;;;;;;11.23;5.77;;;15.90;99.90;;;;;;5113782;28;20577;-55
2022/09/16 01:55:42;;;;;;;5.50;4.93;;;15.90;99.90;;;;;;5113657;28;20430;-55
2022/09/16 01:58:15;;;;;;;9.47;5.30;;;15.60;99.90;;;;;;5113863;28;20424;-56
2022/09/16 02:00:44;;;;;;;6.23;5.23;;;15.50;99.90;;;;;;5113735;28;20426;-55
2022/09/16 02:03:18;;;;;;;6.70;5.40;;;15.40;99.90;;;;;;5113748;28;20469;-55
2022/09/16 02:05:50;;;;;;;6.30;5.43;;;15.30;99.90;;;;;;5113904;28;20427;-55
2022/09/16 02:08:24;;;;;;;6.03;4.73;;;15.20;99.90;;;;;;5113419;28;20430;-55
2022/09/16 02:10:56;;;;;;;6.90;5.07;;;15.50;99.90;;;;;;5113592;28;20978;-56
2022/09/16 02:13:28;;;;;;;7.43;4.87;;;15.60;99.90;;;;;;5113306;28;20872;-55
2022/09/16 02:15:59;;;;;;;4.60;4.20;;;15.50;99.90;;;;;;5113653;28;20450;-55
2022/09/16 02:18:32;;;;;;;9.40;5.23;;;15.70;99.90;;;;;;5113442;28;20430;-56
2022/09/16 02:21:02;;;;;;;4.80;4.30;;;16.20;99.90;;;;;;5113572;28;20466;-56
2022/09/16 02:23:34;;;;;;;5.20;4.37;;;16.00;99.90;;;;;;5113756;28;20872;-56
2022/09/16 02:26:05;;;;;;;5.57;4.37;;;15.90;99.90;;;;;;5113714;28;20436;-56
2022/09/16 02:28:35;;;;;;;5.67;4.50;;;15.90;99.90;;;;;;5113693;28;20463;-56
2022/09/16 02:31:06;;;;;;;5.80;4.03;;;15.80;99.90;;;;;;5113355;28;20475;-55
2022/09/16 02:33:46;;;;;;;7.13;4.90;;;15.50;99.90;;;;;;5113203;28;20522;-56
2022/09/16 02:36:16;;;;;;;4.83;4.17;;;16.00;99.90;;;;;;5113461;28;20437;-56
2022/09/16 02:38:47;;;;;;;4.70;4.20;;;16.20;99.90;;;;;;5113777;28;20446;-56
2022/09/16 02:41:14;;;;;;;7.50;4.30;;;16.00;99.90;;;;;;5113343;28;20467;-56
2022/09/16 02:43:42;;;;;;;5.20;4.20;;;16.00;99.90;;;;;;5111809;28;20519;-56
2022/09/16 02:46:15;;;;;;;4.33;3.93;;;15.80;99.90;;;;;;5113192;28;20890;-56
2022/09/16 02:48:58;;;;;;;4.30;3.90;;;15.80;99.90;;;;;;5115796;28;20764;-56
2022/09/16 02:51:33;;;;;;;7.70;4.40;;;15.60;99.90;;;;;;5116977;28;20489;-56
2022/09/16 02:54:06;;;;;;;9.57;4.47;;;15.60;99.90;;;;;;5117085;28;20426;-56
2022/09/16 02:56:36;;;;;;;6.00;4.60;;;15.80;99.90;;;;;;5116751;28;20901;-56
2022/09/16 02:59:06;;;;;;;5.53;4.43;;;15.70;99.90;;;;;;5117163;28;20438;-56
2022/09/16 03:01:36;;;;;;;8.43;4.30;;;15.50;99.90;;;;;;5116964;28;20545;-56
2022/09/16 03:04:05;;;;;;;4.60;4.10;;;15.30;99.90;;;;;;5116993;28;20859;-56
2022/09/16 03:06:34;;;;;;;6.80;3.77;;;15.10;99.90;;;;;;5116856;28;20982;-56
2022/09/16 03:09:04;;;;;;;5.43;4.23;;;15.00;99.90;;;;;;5116550;28;20816;-56
2022/09/16 03:12:10;;;;;;;4.60;3.80;;;14.90;99.90;;;;;;5116609;28;20486;-56
2022/09/16 03:15:03;;;;;;;6.07;3.70;;;14.90;99.90;;;;;;5082249;28;20533;-56
2022/09/16 03:17:51;;;;;;;6.23;3.37;;;14.90;99.90;;;;;;5116629;28;20423;-56
2022/09/16 03:20:29;;;;;;;6.70;4.13;;;14.90;99.90;;;;;;5116263;28;20941;-56
2022/09/16 03:23:07;;;;;;;7.53;4.20;;;14.90;99.90;;;;;;5116407;28;20466;-55
2022/09/16 03:25:51;;;;;;;6.00;4.20;;;14.80;99.90;;;;;;5116333;28;20441;-56
2022/09/16 03:28:23;;;;;;;5.13;3.93;;;15.10;99.90;;;;;;5116257;28;20438;-56
2022/09/16 03:30:59;;;;;;;5.73;4.30;;;15.00;99.90;;;;;;5115989;28;20522;-56
2022/09/16 03:33:33;;;;;;;4.67;3.30;;;14.90;99.90;;;;;;5115980;28;20473;-56
2022/09/16 03:36:05;;;;;;;5.70;4.40;;;14.80;99.90;;;;;;5116270;28;20777;-56
2022/09/16 03:38:35;;;;;;;6.20;3.90;;;14.80;99.90;;;;;;5116207;28;20430;-56
2022/09/16 03:41:04;;;;;;;4.40;4.00;;;14.70;99.90;;;;;;5116253;28;20466;-56
2022/09/16 03:43:31;;;;;;;5.30;3.10;;;;;;;;;;5115994;28;20446;-56
2022/09/16 03:45:59;;;;;;;7.67;3.40;;;14.90;99.90;;;;;;5115749;28;21009;-56
2022/09/16 03:48:26;;;;;;;4.03;3.60;;;;;;;;;;5115839;28;20508;-56
2022/09/16 03:50:53;;;;;;;6.73;4.33;;;14.90;99.90;;;;;;5115709;28;20982;-56
2022/09/16 03:53:22;;;;;;;7.90;4.03;;;14.80;99.90;;;;;;5115451;28;20481;-56
2022/09/16 03:55:49;;;;;;;4.80;3.33;;;14.80;99.90;;;;;;5116006;28;20442;-56
2022/09/16 03:58:16;;;;;;;4.63;3.70;;;14.80;99.90;;;;;;5115272;28;20443;-56
2022/09/16 04:00:48;;;;;;;4.07;3.67;;;14.80;99.90;;;;;;5115659;28;20442;-55
2022/09/16 04:03:15;;;;;;;8.17;4.00;;;14.80;99.90;;;;;;5115959;28;20516;-56
2022/09/16 04:05:42;;;;;;;5.00;3.83;;;14.80;99.90;;;;;;5115514;28;20947;-56
2022/09/16 04:08:09;;;;;;;6.53;3.93;;;14.80;99.90;;;;;;5115402;28;20461;-56
2022/09/16 04:10:37;;;;;;;6.43;3.60;;;14.80;99.90;;;;;;5115339;28;20447;-55
2022/09/16 04:13:05;;;;;;;10.20;4.03;;;14.80;99.90;;;;;;5115162;28;20493;-56
2022/09/16 04:15:32;;;;;;;6.63;3.20;;;14.70;99.90;;;;;;5115120;28;20937;-56
2022/09/16 04:18:00;;;;;;;3.90;3.60;;;15.00;99.90;;;;;;5115403;28;20449;-55
2022/09/16 04:20:27;;;;;;;6.10;3.90;;;15.30;99.90;;;;;;5115394;28;20442;-56
2022/09/16 04:22:55;;;;;;;11.90;6.27;;;15.20;99.90;;;;;;5115186;28;20462;-57
2022/09/16 04:25:22;;;;;;;7.07;3.63;;;15.10;99.90;;;;;;5115316;28;20450;-56
2022/09/16 04:27:50;;;;;;;5.83;3.37;;;15.00;99.90;;;;;;5115375;28;20538;-56
2022/09/16 04:30:19;;;;;;;6.10;3.83;;;14.90;99.90;;;;;;5114840;28;20453;-56
2022/09/16 04:32:46;;;;;;;5.33;4.03;;;14.90;99.90;;;;;;5114565;28;21030;-56
2022/09/16 04:35:13;;;;;;;5.93;3.67;;;15.00;99.90;;;;;;5115210;28;20533;-56
2022/09/16 04:37:41;;;;;;;4.20;3.90;;;14.90;99.90;;;;;;5114987;28;20512;-56
2022/09/16 04:40:09;;;;;;;5.80;3.67;;;14.80;99.90;;;;;;5114940;28;20439;-56
2022/09/16 04:42:36;;;;;;;3.70;3.30;;;14.80;99.90;;;;;;5114794;28;20470;-56
2022/09/16 04:45:06;;;;;;;6.60;4.00;;;14.80;99.90;;;;;;5114368;28;20475;-56
2022/09/16 04:47:33;;;;;;;3.90;3.47;;;15.00;99.90;;;;;;5114520;28;20925;-56
2022/09/16 04:50:00;;;;;;;4.10;3.80;;;15.00;99.90;;;;;;5114690;28;20435;-56
2022/09/16 04:52:30;;;;;;;11.00;4.73;;;15.10;99.90;;;;;;5114165;28;20569;-56
2022/09/16 04:54:57;;;;;;;5.47;4.03;;;15.20;99.90;;;;;;5114624;28;20446;-55
2022/09/16 04:57:25;;;;;;;6.00;3.83;;;15.00;99.90;;;;;;5114583;28;20530;-56
2022/09/16 04:59:52;;;;;;;3.67;3.37;;;14.90;99.90;;;;;;5114689;28;20444;-56
2022/09/16 05:02:20;;;;;;;6.23;4.63;;;14.90;99.90;;;;;;5114390;28;20470;-56
2022/09/16 05:04:48;;;;;;;7.73;4.00;;;15.00;99.90;;;;;;5114442;28;20813;-56
2022/09/16 05:07:15;;;;;;;5.77;4.00;;;15.00;99.90;;;;;;5114223;28;20529;-56
2022/09/16 05:09:42;;;;;;;7.10;4.10;;;15.00;99.90;;;;;;5114195;28;20442;-56
2022/09/16 05:12:09;;;;;;;6.30;4.53;;;14.90;99.90;;;;;;5113328;28;20478;-56
2022/09/16 05:14:37;;;;;;;8.00;4.43;;;15.00;99.90;;;;;;5114347;27;20514;-56
2022/09/16 05:17:04;;;;;;;9.53;4.57;;;15.00;99.90;;;;;;5114096;28;20450;-56
2022/09/16 05:19:32;;;;;;;5.27;4.40;;;14.90;99.90;;;;;;5114112;28;20454;-56
2022/09/16 05:22:01;;;;;;;5.80;4.00;;;14.90;99.90;;;;;;5113639;28;20995;-55
2022/09/16 05:24:29;;;;;;;5.17;3.83;;;15.00;99.90;;;;;;5113571;28;20451;-56
2022/09/16 05:26:56;;;;;;;4.93;4.10;;;15.10;99.90;;;;;;5113986;28;20449;-56
2022/09/16 05:29:23;;;;;;;5.83;3.70;;;15.30;99.90;;;;;;5114078;28;20443;-55
2022/09/16 05:31:50;;;;;;;4.30;3.90;;;15.70;99.90;;;;;;5113384;28;20477;-56
2022/09/16 05:34:20;;;;;;;5.83;4.03;;;15.90;99.90;;;;;;5113585;28;20485;-56
2022/09/16 05:36:49;;;;;;;4.17;3.77;;;15.50;99.90;;;;;;5113802;28;20449;-55
2022/09/16 05:39:17;;;;;;;6.20;4.50;;;15.90;99.90;;;;;;5113949;28;20446;-56
2022/09/16 05:41:45;;;;;;;5.50;4.60;;;16.10;99.90;;;;;;5113750;28;20470;-55
2022/09/16 05:44:12;;;;;;;4.63;4.23;;;15.70;99.90;;;;;;5113001;28;20482;-55
2022/09/16 05:46:40;;;;;;;5.47;3.83;;;15.50;99.90;;;;;;5113358;28;20537;-55
2022/09/16 05:49:07;;;;;;;4.63;4.20;;;15.30;99.90;;;;;;5113371;28;20447;-56
2022/09/16 05:51:36;;;;;;;5.10;3.90;;;15.20;99.90;;;;;;5113066;28;20577;-56
2022/09/16 05:54:05;;;;;;;4.77;4.13;;;15.20;99.90;;;;;;5113495;28;20478;-56
2022/09/16 05:56:32;;;;;;;6.13;4.90;;;15.30;99.90;;;;;;5113587;28;20450;-56
2022/09/16 05:59:00;;;;;;;5.43;4.03;;;15.20;99.90;;;;;;5113260;28;20495;-56
2022/09/16 06:01:30;;;;;;;4.80;4.30;;;15.20;99.90;;;;;;5113607;28;20808;-55
2022/09/16 06:04:00;;;;;;;5.40;3.90;;;15.20;99.90;;;;;;5113327;28;20539;-55
2022/09/16 06:06:28;;;;;;;8.23;3.80;;;15.30;99.90;;;;;;5113309;28;20469;-55
2022/09/16 06:09:00;;;;;;;6.30;4.30;;;15.40;99.90;;;;;;5113554;28;20554;-56
2022/09/16 06:11:29;;;;;;;5.60;4.50;;;15.50;99.90;;;;;;5113130;28;20473;-55
2022/09/16 06:13:58;;;;;;;9.33;4.97;;;15.40;99.90;;;;;;5113568;28;20574;-56
2022/09/16 06:16:27;;;;;;;5.27;4.63;;;15.10;99.90;;;;;;5113392;28;20554;-55
2022/09/16 06:18:56;;;;;;;10.13;4.97;;;15.00;99.90;;;;;;5113685;28;20449;-55
2022/09/16 06:21:24;;;;;;;9.57;4.97;;;14.90;99.90;;;;;;5114033;28;20531;-55
2022/09/16 06:23:52;;;;;;;5.50;4.10;;;14.80;99.90;;;;;;5116899;28;20446;-56
2022/09/16 06:26:21;;;;;;;6.00;4.67;;;14.80;99.90;;;;;;5117041;28;20944;-55
2022/09/16 06:28:50;;;;;;;8.77;4.30;;;14.90;99.90;;;;;;5117343;28;20442;-56
2022/09/16 06:31:19;;;;;;;6.23;4.27;;;14.90;99.90;;;;;;5117286;28;20494;-56
2022/09/16 06:33:49;;;;;;;7.13;4.77;;;15.20;99.90;;;;;;5116804;28;20489;-56
2022/09/16 06:36:18;;;;;;;5.70;4.43;;;15.20;99.90;;;;;;5117056;28;20442;-56
2022/09/16 06:38:45;;;;;;;7.40;4.80;;;15.20;99.90;;;;;;5116685;28;20855;-56
2022/09/16 06:41:14;;;;;;;7.90;4.83;;;15.30;99.90;;;;;;5116799;28;20468;-55
2022/09/16 06:43:41;;;;;;;7.50;4.83;;;15.00;99.90;;;;;;5116210;28;21043;-55
2022/09/16 06:46:12;;;;;;;5.80;4.80;;;14.90;99.90;;;;;;5116807;28;20427;-56
2022/09/16 06:48:41;;;;;;;6.47;5.00;;;14.70;99.90;;;;;;5116274;28;20893;-55
2022/09/16 06:51:11;;;;;;;6.43;4.63;;;14.50;99.90;;;;;;5116622;28;20466;-55
2022/09/16 06:53:39;;;;;;;5.50;5.00;;;14.70;99.90;;;;;;5116411;28;20470;-56
2022/09/16 06:56:09;;;;;;;5.67;4.43;;;14.30;99.90;;;;;;5116652;28;20457;-55
2022/09/16 06:58:38;;;;;;;6.53;5.40;;;14.30;99.90;;;;;;5116771;28;20775;-55
2022/09/16 07:01:06;;;;;;;5.67;5.07;;;14.30;99.90;;;;;;5116662;28;20916;-55
2022/09/16 07:03:38;;;;;;;9.77;5.60;;;14.50;99.90;;;;;;5116475;28;20996;-55
2022/09/16 07:06:05;;;;;;;6.10;5.50;;;14.50;99.90;;;;;;5116602;28;20438;-55
2022/09/16 07:08:34;;;;;;;6.03;5.50;;;14.40;99.90;;;;;;5116409;28;20469;-55
2022/09/16 07:11:04;;;;;;;6.50;4.63;;;14.60;99.90;;;;;;5116503;28;20549;-55
2022/09/16 07:13:32;;;;;;;5.10;3.77;;;14.60;99.90;;;;;;5116304;28;20486;-55
2022/09/16 07:16:00;;;;;;;7.60;5.13;;;14.80;99.90;;;;;;5116072;28;20451;-55
2022/09/16 07:18:28;;;;;;;7.10;6.37;;;14.70;99.90;;;;;;5116100;28;20933;-55
2022/09/16 07:21:03;;;;;;;6.23;4.40;;;14.90;99.90;;;;;;5116074;28;20542;-55
2022/09/16 07:23:31;;;;;;;5.70;4.27;;;15.30;99.90;;;;;;5115919;28;20423;-55
2022/09/16 07:26:03;;;;;;;5.03;3.93;;;15.50;99.90;;;;;;5115994;28;20442;-55
2022/09/16 07:28:30;;;;;;;6.60;5.07;;;15.20;99.90;;;;;;5116121;28;20431;-56
2022/09/16 07:31:00;;;;;;;5.30;4.40;;;15.10;99.90;;;;;;5115944;28;20557;-55
2022/09/16 07:33:27;;;;;;;6.60;4.70;;;14.70;99.90;;;;;;5114934;28;20996;-55
2022/09/16 07:35:59;;;;;;;5.90;4.30;;;14.50;99.90;;;;;;5116053;28;20541;-55
2022/09/16 07:38:29;;;;;;;6.60;4.10;;;14.40;99.90;;;;;;5115783;28;20427;-55
2022/09/16 07:40:56;;;;;;;11.57;5.07;;;14.50;99.90;;;;;;5115810;28;20821;-56
2022/09/16 07:43:23;;;;;;;7.07;4.87;;;14.80;99.90;;;;;;5115831;28;20451;-55
2022/09/16 07:45:56;;;;;;;6.60;4.57;;;15.20;99.90;;;;;;5115451;28;20463;-55
2022/09/16 07:48:23;;;;;;;6.33;5.10;;;15.10;99.90;;;;;;5115756;28;20430;-55
2022/09/16 07:50:56;;;;;;;6.00;5.40;;;15.00;99.90;;;;;;5115279;28;20451;-54
2022/09/16 07:53:24;;;;;;;9.70;5.60;;;15.00;99.90;;;;;;5115258;28;20530;-55
2022/09/16 07:55:52;;;;;;;5.43;4.90;;;14.80;99.90;;;;;;5115842;28;20874;-55
2022/09/16 07:58:19;;;;;;;7.60;4.57;;;15.10;99.90;;;;;;5115635;28;20802;-55
2022/09/16 08:00:48;;;;;;;5.67;4.93;;;14.90;99.90;;;;;;5115262;28;20447;-55
2022/09/16 08:03:16;;;;;;;7.87;5.33;;;14.80;99.90;;;;;;5115459;28;20435;-55
2022/09/16 08:05:44;;;;;;;9.47;6.03;;;14.50;99.90;;;;;;5115504;28;20779;-55
2022/09/16 08:08:11;;;;;;;6.77;4.97;;;14.30;99.90;;;;;;5115468;28;20538;-55
2022/09/16 08:10:38;;;;;;;4.93;4.20;;;14.20;99.90;;;;;;5115124;28;20453;-55
2022/09/16 08:13:08;;;;;;;6.40;5.80;;;14.40;99.90;;;;;;5114856;28;20489;-55
2022/09/16 08:15:35;;;;;;;6.83;6.13;;;14.70;99.90;;;;;;5114809;28;20937;-56
2022/09/16 08:18:02;;;;;;;5.93;5.37;;;14.90;99.90;;;;;;5115081;28;21032;-56
2022/09/16 08:20:29;;;;;;;8.23;5.10;;;14.80;99.90;;;;;;5115173;28;20522;-55
2022/09/16 08:22:56;;;;;;;7.00;6.30;;;14.80;99.90;;;;;;5115090;28;20462;-56
2022/09/16 08:25:23;;;;;;;5.77;4.83;;;15.20;99.90;;;;;;5115310;28;20461;-56
2022/09/16 08:27:51;;;;;;;6.50;4.90;;;15.40;99.90;;;;;;5115092;28;20473;-56
2022/09/16 08:30:19;;;;;;;7.67;6.30;;;15.10;99.90;;;;;;5115068;28;20528;-56
2022/09/16 08:32:47;;;;;;;6.10;5.50;;;14.70;99.90;;;;;;5114632;28;21036;-56
2022/09/16 08:35:14;;;;;;;6.27;5.40;;;14.70;99.90;;;;;;5114742;28;20489;-56
2022/09/16 08:37:41;;;;;;;7.63;6.47;;;14.90;99.90;;;;;;5114673;28;20541;-56
2022/09/16 08:40:14;;;;;;;6.80;6.10;;;15.10;99.90;;;;;;5114571;28;20449;-56
2022/09/16 08:42:59;;;;;;;6.33;5.70;;;15.10;99.90;;;;;;5114662;28;20474;-56
2022/09/16 08:45:34;;;;;;;10.23;8.17;;;14.90;99.90;;;;;;5113335;28;20849;-56
2022/09/16 08:48:26;;;;;;;7.17;5.10;;;14.90;99.90;;;;;;5114557;28;20487;-56
2022/09/16 08:50:54;;;;;;;5.63;5.00;;;14.90;99.90;;;;;;5113458;28;20701;-56
2022/09/16 08:53:29;;;;;;;6.93;5.43;;;15.00;99.90;;;;;;5113284;28;20521;-55
2022/09/16 08:55:57;;;;;;;10.03;6.83;;;14.90;99.90;;;;;;5113776;28;20434;-56
2022/09/16 08:58:27;;;;;;;11.80;6.03;;;14.80;99.90;;;;;;5114060;28;20453;-56
2022/09/16 09:00:59;;;;;;;11.77;5.57;;;14.80;99.90;;;;;;5113380;28;20881;-56
2022/09/16 09:03:36;;;;;;;9.23;5.83;;;14.60;99.90;;;;;;5113378;28;20461;-55
2022/09/16 09:06:08;;;;;;;6.50;4.50;;;14.80;99.90;;;;;;5113590;28;20431;-56
2022/09/16 09:08:43;;;;;;;8.23;4.50;;;15.00;99.90;;;;;;5113953;28;20480;-57
2022/09/16 09:11:17;;;;;;;6.10;4.50;;;15.00;99.90;;;;;;5113732;28;20542;-56
2022/09/16 09:14:09;;;;;;;6.60;4.43;;;15.00;99.90;;;;;;5113303;28;20531;-57
2022/09/16 09:16:46;;;;;;;4.30;3.60;;;14.90;99.90;;;;;;5100696;28;20458;-56
2022/09/16 09:19:30;;;;;;;5.60;4.30;;;14.80;99.90;;;;;;5113648;28;20426;-56
2022/09/16 09:22:04;;;;;;;5.10;4.67;;;15.20;99.90;;;;;;5114076;28;20471;-57
2022/09/16 09:24:48;;;;;;;5.97;4.70;;;15.20;99.90;;;;;;5113142;28;20782;-55
2022/09/16 09:27:24;;;;;;;4.67;4.17;;;15.10;99.90;;;;;;5113322;28;20437;-55
2022/09/16 09:30:09;;;;;;;7.90;4.90;;;15.00;99.90;;;;;;5113509;28;20454;-57
2022/09/16 09:33:04;;;;;;;10.90;4.60;;;14.80;99.90;;;;;;5112980;28;20473;-56
2022/09/16 09:35:48;;;;;;;6.37;4.40;;;14.90;99.90;;;;;;5113230;28;20484;-55
2022/09/16 09:38:36;;;;;;;4.40;4.10;;;14.80;99.90;;;;;;5113504;28;20787;-57
2022/09/16 09:41:07;;;;;;;5.20;4.30;;;14.80;99.90;;;;;;5113146;28;20520;-56
2022/09/16 09:43:39;;;;;;;4.97;4.33;;;14.90;99.90;;;;;;5113150;28;20935;-56
2022/09/16 09:46:12;;;;;;;7.40;4.43;;;15.10;99.90;;;;;;5113233;28;20475;-56
2022/09/16 09:48:44;;;;;;;5.10;4.60;;;15.40;99.90;;;;;;5113227;28;20917;-56
2022/09/16 09:51:20;;;;;;;5.10;4.13;;;15.60;99.90;;;;;;5112943;28;20462;-57
2022/09/16 09:53:53;;;;;;;6.40;4.60;;;15.70;99.90;;;;;;5112746;28;20988;-57
2022/09/16 09:56:24;;;;;;;4.10;3.70;;;15.40;99.90;;;;;;5112631;28;20513;-56
2022/09/16 09:59:01;;;;;;;6.23;4.40;;;15.30;99.90;;;;;;5113276;28;20427;-57
2022/09/16 10:01:28;;;;;;;4.40;4.00;;;15.10;99.90;;;;;;5113139;28;20828;-56
2022/09/16 10:03:59;;;;;;;4.83;4.40;;;15.20;99.90;;;;;;5112802;28;20443;-56
2022/09/16 10:06:30;;;;;;;5.73;4.20;;;15.10;99.90;;;;;;5112693;28;20467;-55
2022/09/16 10:08:58;;;;;;;6.13;4.20;;;15.20;99.90;;;;;;5112513;28;20427;-56
2022/09/16 10:11:27;;;;;;;5.63;4.07;;;15.10;99.90;;;;;;5112138;28;20993;-56
2022/09/16 10:13:57;;;;;;;4.10;3.70;;;15.10;99.90;;;;;;5112769;28;20483;-56
2022/09/16 10:16:29;;;;;;;6.17;4.47;;;15.20;99.90;;;;;;5112481;28;20435;-56
2022/09/16 10:19:01;;;;;;;4.47;3.70;;;15.30;99.90;;;;;;5112882;28;20525;-56
2022/09/16 10:21:40;;;;;;;3.93;3.63;;;15.20;99.90;;;;;;5112650;28;20470;-56
2022/09/16 10:24:31;;;;;;;5.67;4.23;;;15.30;99.90;;;;;;5112697;28;20491;-56
2022/09/16 10:27:00;;;;;;;7.63;4.40;;;15.20;99.90;;;;;;5112472;28;20842;-56
2022/09/16 10:29:27;;;;;;;6.53;4.30;;;15.30;99.90;;;;;;5112736;28;20854;-56
2022/09/16 10:31:57;;;;;;;5.80;4.50;;;15.50;99.90;;;;;;5112839;28;20553;-56
2022/09/16 10:34:31;;;;;;;5.67;5.03;;;15.30;99.90;;;;;;5112872;28;20862;-56
2022/09/16 10:37:04;;;;;;;5.50;5.00;;;15.30;99.90;;;;;;5112867;28;20427;-56
2022/09/16 10:39:32;;;;;;;5.83;3.90;;;15.40;99.90;;;;;;5112314;28;20433;-56
2022/09/16 10:42:00;;;;;;;5.07;4.40;;;15.20;99.90;;;;;;5112872;28;20555;-56
2022/09/16 10:44:29;;;;;;;4.83;4.40;;;15.00;99.90;;;;;;5112582;28;20478;-56
2022/09/16 10:47:00;;;;;;;4.23;3.93;;;15.10;99.90;;;;;;5112829;28;20446;-56
2022/09/16 10:49:37;;;;;;;8.23;4.67;;;15.10;99.90;;;;;;5112592;28;20441;-56
2022/09/16 10:52:09;;;;;;;6.40;4.57;;;15.30;99.90;;;;;;5112869;28;20519;-56
2022/09/16 10:54:36;;;;;;;6.37;5.77;;;15.90;99.90;;;;;;5112912;28;20853;-56
2022/09/16 10:57:03;;;;;;;6.20;3.93;;;15.70;99.90;;;;;;5112684;28;20788;-56
2022/09/16 10:59:30;;;;;;;5.13;3.63;;;15.90;99.90;;;;;;5112896;28;20449;-56
2022/09/16 11:02:13;;;;;;;6.57;3.90;;;15.80;99.90;;;;;;5113124;28;20462;-56
2022/09/16 11:04:57;;;;;;;4.23;3.67;;;15.60;99.90;;;;;;5112835;28;20510;-56
2022/09/16 11:07:37;;;;;;;3.73;3.30;;;15.50;99.90;;;;;;5113222;28;20427;-56
2022/09/16 11:10:14;;;;;;;6.20;4.30;;;15.40;99.90;;;;;;5115731;28;20896;-56
2022/09/16 11:13:14;;;;;;;3.67;3.30;;;15.40;99.90;;;;;;5116449;28;20576;-56
2022/09/16 11:15:50;;;;;;;6.67;4.57;;;;;;;;;;5116490;28;20511;-56
2022/09/16 11:18:28;;;;;;;3.70;3.30;;;17.00;99.90;;;;;;5116416;28;20441;-56
2022/09/16 11:21:24;;;;;;;4.20;3.47;;;16.10;99.90;;;;;;5116184;28;20453;-56
2022/09/16 11:24:18;;;;;;;4.03;3.67;;;16.00;99.90;;;;;;5116156;28;20427;-56
2022/09/16 11:26:53;;;;;;;5.00;4.60;;;15.80;99.90;;;;;;5115978;28;20431;-56
2022/09/16 11:29:45;;;;;;;4.57;3.30;;;15.70;99.90;;;;;;5115740;28;20426;-56
2022/09/16 11:32:19;;;;;;;6.47;4.10;;;16.10;99.90;;;;;;5115895;28;20468;-56
2022/09/16 11:35:00;;;;;;;4.80;3.57;;;16.20;99.90;;;;;;5116106;28;20462;-56
2022/09/16 11:37:36;;;;;;;5.83;3.80;;;17.20;99.90;;;;;;5116137;28;20518;-56
2022/09/16 11:40:16;;;;;;;3.40;3.10;;;16.90;99.90;;;;;;5112115;28;20453;-56
2022/09/16 11:42:54;;;;;;;4.43;3.20;;;16.20;99.90;;;;;;5095324;28;20475;-56
2022/09/16 11:45:37;;;;;;;5.97;3.50;;;16.30;99.90;;;;;;5095045;28;20554;-57
2022/09/16 11:48:34;;;;;;;3.40;2.90;;;17.90;99.90;;;;;;5115180;28;20437;-57
2022/09/16 11:51:11;;;;;;;2.70;2.50;;;18.20;99.90;;;;;;5111690;28;20486;-59
2022/09/16 11:54:06;;;;;;;3.30;3.07;;;18.30;99.90;;;;;;5094378;28;20894;-59
2022/09/16 11:56:40;;;;;;;3.53;2.83;;;19.00;99.90;;;;;;5097676;28;20485;-62
2022/09/16 11:59:15;;;;;;;5.77;2.97;;;19.70;99.90;;;;;;5096412;28;20438;-60
2022/09/16 12:01:45;;;;;;;6.77;2.87;;;19.40;99.90;;;;;;5098623;28;20528;-56
2022/09/16 12:04:19;;;;;;;9.33;2.90;;;19.30;99.90;;;;;;5109603;28;20808;-58
2022/09/16 12:06:54;;;;;;;5.23;2.70;;;17.90;99.90;;;;;;5097355;28;20432;-55
2022/09/16 12:09:31;;;;;;;3.03;2.57;;;17.80;99.90;;;;;;5094632;28;20443;-57
2022/09/16 12:12:07;;;;;;;3.73;2.60;;;18.80;99.90;;;;;;5094825;28;20467;-58
2022/09/16 12:14:38;;;;;;;6.80;2.73;;;18.40;99.90;;;;;;5104345;28;20987;-53
2022/09/16 12:17:11;;;;;;;5.23;3.50;;;18.80;99.90;;;;;;5101241;28;20447;-59
2022/09/16 12:19:44;;;;;;;4.60;2.37;;;18.10;99.90;;;;;;5094750;28;20446;-54
2022/09/16 12:22:17;;;;;;;3.67;2.50;;;18.90;99.90;;;;;;5097481;28;20570;-49
2022/09/16 12:24:51;;;;;;;3.47;2.67;;;19.20;99.90;;;;;;5095888;28;20961;-53
2022/09/16 12:27:40;;;;;;;4.20;2.33;;;18.80;99.90;;;;;;5094283;28;20477;-53
2022/09/16 12:30:15;;;;;;;7.30;3.43;;;18.90;99.90;;;;;;5094813;28;20474;-55
2022/09/16 12:32:50;;;;;;;3.80;2.83;;;18.90;99.90;;;;;;5094454;28;20529;-56
2022/09/16 12:35:21;;;;;;;2.80;2.30;;;19.00;99.90;;;;;;5104546;28;20470;-59
2022/09/16 12:37:50;;;;;;;3.80;2.50;;;20.00;99.90;;;;;;5113354;28;20442;-58
2022/09/16 12:40:23;;;;;;;2.87;2.10;;;20.50;99.90;;;;;;5106754;28;20451;-64
2022/09/16 12:43:27;;;;;;;3.20;2.67;;;19.80;99.90;;;;;;5097832;28;20636;-60
2022/09/16 12:46:27;;;;;;;3.93;2.60;;;19.20;99.90;;;;;;5093606;28;20486;-58
2022/09/16 12:49:21;;;;;;;2.87;2.67;;;18.80;99.90;;;;;;5102192;28;20454;-64
2022/09/16 12:52:22;;;;;;;3.87;2.70;;;19.50;99.90;;;;;;5101210;28;20477;-54
2022/09/16 12:55:28;;;;;;;2.57;2.30;;;20.00;99.90;;;;;;5108572;28;20504;-62
2022/09/16 12:58:14;;;;;;;3.60;2.50;;;19.80;99.90;;;;;;5112927;28;20445;-58
2022/09/16 13:00:51;;;;;;;6.50;2.53;;;20.00;99.90;;;;;;5097109;28;20546;-61
2022/09/16 13:03:22;;;;;;;3.40;2.70;;;19.30;99.90;;;;;;5097438;28;20570;-57
2022/09/16 13:05:52;;;;;;;4.80;2.83;;;19.10;99.90;;;;;;5098284;28;20803;-57
2022/09/16 13:08:23;;;;;;;2.97;2.40;;;18.80;99.90;;;;;;5096976;28;20463;-60
2022/09/16 13:10:58;;;;;;;3.50;2.60;;;18.70;99.90;;;;;;5094044;28;20941;-58
2022/09/16 13:13:32;;;;;;;2.73;2.50;;;19.90;99.90;;;;;;5102895;28;20535;-54
2022/09/16 13:16:02;;;;;;;3.17;2.30;;;19.60;99.90;;;;;;5108957;28;20477;-56